sensor_id;sensor_type;location;lat;lon;timestamp;temperature;humidity
25248;DHT22;13191;47.472;11.214;2023-03-15T00:02:03;3.20;99.90
25248;DHT22;13191;47.472;11.214;2023-03-15T00:04:28;3.10;99.90
25248;DHT22;13191;47.472;11.214;2023-03-15T00:06:56;3.10;99.90
25248;DHT22;13191;47.472;11.214;2023-03-15T00:09:22;3.00;99.90
25248;DHT22;13191;47.472;11.214;2023-03-15T00:11:48;2.90;99.90
25248;DHT22;13191;47.472;11.214;2023-03-15T00:14:14;3.00;99.90
25248;DHT22;13191;47.472;11.214;2023-03-15T00:16:39;3.00;99.90
25248;DHT22;13191;47.472;11.214;2023-03-15T00:19:07;3.00;99.90
25248;DHT22;13191;47.472;11.214;2023-03-15T00:21:33;3.00;99.90
25248;DHT22;13191;47.472;11.214;2023-03-15T00:23:58;2.90;99.90
25248;DHT22;13191;47.472;11.214;2023-03-15T00:26:24;2.80;99.90
25248;DHT22;13191;47.472;11.214;2023-03-15T00:28:49;2.90;99.90
25248;DHT22;13191;47.472;11.214;2023-03-15T00:31:19;2.80;99.90
25248;DHT22;13191;47.472;11.214;2023-03-15T00:33:45;2.80;99.90
25248;DHT22;13191;47.472;11.214;2023-03-15T00:36:11;2.80;99.90
25248;DHT22;13191;47.472;11.214;2023-03-15T00:38:38;2.80;99.90
25248;DHT22;13191;47.472;11.214;2023-03-15T00:41:06;2.60;99.90
25248;DHT22;13191;47.472;11.214;2023-03-15T00:43:32;2.60;99.90
25248;DHT22;13191;47.472;11.214;2023-03-15T00:45:57;2.50;99.90
25248;DHT22;13191;47.472;11.214;2023-03-15T00:48:23;2.50;99.90
25248;DHT22;13191;47.472;11.214;2023-03-15T00:50:48;2.50;99.90
25248;DHT22;13191;47.472;11.214;2023-03-15T00:53:14;2.40;99.90
25248;DHT22;13191;47.472;11.214;2023-03-15T00:55:39;2.20;99.90
25248;DHT22;13191;47.472;11.214;2023-03-15T00:58:06;2.10;99.90
25248;DHT22;13191;47.472;11.214;2023-03-15T01:00:32;2.00;99.90
25248;DHT22;13191;47.472;11.214;2023-03-15T01:02:58;2.00;99.90
25248;DHT22;13191;47.472;11.214;2023-03-15T01:05:23;2.00;99.90
25248;DHT22;13191;47.472;11.214;2023-03-15T01:07:50;2.00;99.90
25248;DHT22;13191;47.472;11.214;2023-03-15T01:10:16;2.10;99.90
25248;DHT22;13191;47.472;11.214;2023-03-15T01:12:42;2.10;99.90
25248;DHT22;13191;47.472;11.214;2023-03-15T01:15:09;2.20;99.90
25248;DHT22;13191;47.472;11.214;2023-03-15T01:17:36;2.10;99.90
25248;DHT22;13191;47.472;11.214;2023-03-15T01:20:02;2.10;99.90
25248;DHT22;13191;47.472;11.214;2023-03-15T01:22:29;2.20;99.90
25248;DHT22;13191;47.472;11.214;2023-03-15T01:24:55;2.20;99.90
25248;DHT22;13191;47.472;11.214;2023-03-15T01:27:20;2.10;99.90
25248;DHT22;13191;47.472;11.214;2023-03-15T01:29:46;2.20;99.90
25248;DHT22;13191;47.472;11.214;2023-03-15T01:32:11;2.30;99.90
25248;DHT22;13191;47.472;11.214;2023-03-15T01:34:37;2.30;99.90
25248;DHT22;13191;47.472;11.214;2023-03-15T01:37:02;2.40;99.90
25248;DHT22;13191;47.472;11.214;2023-03-15T01:39:29;2.50;99.90
25248;DHT22;13191;47.472;11.214;2023-03-15T01:41:55;2.50;99.90
25248;DHT22;13191;47.472;11.214;2023-03-15T01:44:20;2.50;99.90
25248;DHT22;13191;47.472;11.214;2023-03-15T01:46:46;2.40;99.90
25248;DHT22;13191;47.472;11.214;2023-03-15T01:51:41;2.40;99.90
25248;DHT22;13191;47.472;11.214;2023-03-15T01:54:10;2.40;99.90
25248;DHT22;13191;47.472;11.214;2023-03-15T01:56:39;2.40;99.90
25248;DHT22;13191;47.472;11.214;2023-03-15T01:59:06;2.10;99.90
25248;DHT22;13191;47.472;11.214;2023-03-15T02:01:34;2.10;99.90
25248;DHT22;13191;47.472;11.214;2023-03-15T02:04:05;2.10;99.90
25248;DHT22;13191;47.472;11.214;2023-03-15T02:06:31;2.00;99.90
25248;DHT22;13191;47.472;11.214;2023-03-15T02:09:00;1.90;99.90
25248;DHT22;13191;47.472;11.214;2023-03-15T02:11:27;1.80;99.90
25248;DHT22;13191;47.472;11.214;2023-03-15T02:13:53;1.80;99.90
25248;DHT22;13191;47.472;11.214;2023-03-15T02:16:19;1.80;99.90
25248;DHT22;13191;47.472;11.214;2023-03-15T02:18:46;1.60;99.90
25248;DHT22;13191;47.472;11.214;2023-03-15T02:23:40;1.30;99.90
25248;DHT22;13191;47.472;11.214;2023-03-15T02:28:47;1.10;99.90
25248;DHT22;13191;47.472;11.214;2023-03-15T02:31:13;1.10;99.90
25248;DHT22;13191;47.472;11.214;2023-03-15T02:33:41;1.00;99.90
25248;DHT22;13191;47.472;11.214;2023-03-15T02:36:09;1.00;99.90
25248;DHT22;13191;47.472;11.214;2023-03-15T02:38:35;1.00;99.90
25248;DHT22;13191;47.472;11.214;2023-03-15T02:41:01;0.90;99.90
25248;DHT22;13191;47.472;11.214;2023-03-15T02:43:27;0.90;99.90
25248;DHT22;13191;47.472;11.214;2023-03-15T02:45:53;0.90;99.90
25248;DHT22;13191;47.472;11.214;2023-03-15T02:48:19;0.80;99.90
25248;DHT22;13191;47.472;11.214;2023-03-15T02:50:45;0.80;99.90
25248;DHT22;13191;47.472;11.214;2023-03-15T02:53:11;0.80;99.90
25248;DHT22;13191;47.472;11.214;2023-03-15T02:55:36;0.80;99.90
25248;DHT22;13191;47.472;11.214;2023-03-15T02:58:02;0.80;99.90
25248;DHT22;13191;47.472;11.214;2023-03-15T03:00:27;0.90;99.90
25248;DHT22;13191;47.472;11.214;2023-03-15T03:02:53;0.90;99.90
25248;DHT22;13191;47.472;11.214;2023-03-15T03:05:18;0.90;99.90
25248;DHT22;13191;47.472;11.214;2023-03-15T03:07:44;0.90;99.90
25248;DHT22;13191;47.472;11.214;2023-03-15T03:10:10;0.80;99.90
25248;DHT22;13191;47.472;11.214;2023-03-15T03:12:36;0.70;99.90
25248;DHT22;13191;47.472;11.214;2023-03-15T03:15:02;0.60;99.90
25248;DHT22;13191;47.472;11.214;2023-03-15T03:17:29;0.40;99.90
25248;DHT22;13191;47.472;11.214;2023-03-15T03:19:54;0.40;99.90
25248;DHT22;13191;47.472;11.214;2023-03-15T03:22:20;0.30;99.90
25248;DHT22;13191;47.472;11.214;2023-03-15T03:24:49;0.30;99.90
25248;DHT22;13191;47.472;11.214;2023-03-15T03:27:15;0.30;99.90
25248;DHT22;13191;47.472;11.214;2023-03-15T03:29:41;0.40;99.90
25248;DHT22;13191;47.472;11.214;2023-03-15T03:32:07;0.30;99.90
25248;DHT22;13191;47.472;11.214;2023-03-15T03:34:32;0.30;99.90
25248;DHT22;13191;47.472;11.214;2023-03-15T03:36:58;0.30;99.90
25248;DHT22;13191;47.472;11.214;2023-03-15T03:39:23;0.30;99.90
25248;DHT22;13191;47.472;11.214;2023-03-15T03:41:49;0.40;99.90
25248;DHT22;13191;47.472;11.214;2023-03-15T03:44:14;0.30;99.90
25248;DHT22;13191;47.472;11.214;2023-03-15T03:46:40;0.30;99.90
25248;DHT22;13191;47.472;11.214;2023-03-15T03:49:06;0.30;99.90
25248;DHT22;13191;47.472;11.214;2023-03-15T03:51:31;0.30;99.90
25248;DHT22;13191;47.472;11.214;2023-03-15T03:53:58;0.40;99.90
25248;DHT22;13191;47.472;11.214;2023-03-15T03:56:24;0.40;99.90
25248;DHT22;13191;47.472;11.214;2023-03-15T03:58:49;0.30;99.90
25248;DHT22;13191;47.472;11.214;2023-03-15T04:01:15;0.20;99.90
25248;DHT22;13191;47.472;11.214;2023-03-15T04:03:40;0.30;99.90
25248;DHT22;13191;47.472;11.214;2023-03-15T04:06:06;0.40;99.90
25248;DHT22;13191;47.472;11.214;2023-03-15T04:08:31;0.40;99.90
25248;DHT22;13191;47.472;11.214;2023-03-15T04:10:57;0.40;99.90
25248;DHT22;13191;47.472;11.214;2023-03-15T04:13:23;0.40;99.90
25248;DHT22;13191;47.472;11.214;2023-03-15T04:15:49;0.50;99.90
25248;DHT22;13191;47.472;11.214;2023-03-15T04:18:15;0.50;99.90
25248;DHT22;13191;47.472;11.214;2023-03-15T04:20:40;0.50;99.90
25248;DHT22;13191;47.472;11.214;2023-03-15T04:23:11;0.50;99.90
25248;DHT22;13191;47.472;11.214;2023-03-15T04:25:37;0.50;99.90
25248;DHT22;13191;47.472;11.214;2023-03-15T04:28:02;0.40;99.90
25248;DHT22;13191;47.472;11.214;2023-03-15T04:30:28;0.40;99.90
25248;DHT22;13191;47.472;11.214;2023-03-15T04:32:55;0.40;99.90
25248;DHT22;13191;47.472;11.214;2023-03-15T04:35:30;0.40;99.90
25248;DHT22;13191;47.472;11.214;2023-03-15T04:37:56;0.40;99.90
25248;DHT22;13191;47.472;11.214;2023-03-15T04:40:22;0.30;99.90
25248;DHT22;13191;47.472;11.214;2023-03-15T04:42:48;0.30;99.90
25248;DHT22;13191;47.472;11.214;2023-03-15T04:45:14;0.30;99.90
25248;DHT22;13191;47.472;11.214;2023-03-15T04:47:40;0.20;99.90
25248;DHT22;13191;47.472;11.214;2023-03-15T04:50:05;0.20;99.90
25248;DHT22;13191;47.472;11.214;2023-03-15T04:52:31;0.10;99.90
25248;DHT22;13191;47.472;11.214;2023-03-15T04:54:56;0.10;99.90
25248;DHT22;13191;47.472;11.214;2023-03-15T04:57:22;0.10;99.90
25248;DHT22;13191;47.472;11.214;2023-03-15T04:59:47;0.10;99.90
25248;DHT22;13191;47.472;11.214;2023-03-15T05:02:13;0.20;99.90
25248;DHT22;13191;47.472;11.214;2023-03-15T05:04:38;0.20;99.90
25248;DHT22;13191;47.472;11.214;2023-03-15T05:07:04;0.10;99.90
25248;DHT22;13191;47.472;11.214;2023-03-15T05:09:29;0.10;99.90
25248;DHT22;13191;47.472;11.214;2023-03-15T05:12:05;0.00;99.90
25248;DHT22;13191;47.472;11.214;2023-03-15T05:14:31;-0.10;99.90
25248;DHT22;13191;47.472;11.214;2023-03-15T05:16:57;-0.10;99.90
25248;DHT22;13191;47.472;11.214;2023-03-15T05:19:24;-0.10;99.90
25248;DHT22;13191;47.472;11.214;2023-03-15T05:21:50;-0.20;99.90
25248;DHT22;13191;47.472;11.214;2023-03-15T05:24:15;-0.20;99.90
25248;DHT22;13191;47.472;11.214;2023-03-15T05:26:41;-0.20;99.90
25248;DHT22;13191;47.472;11.214;2023-03-15T05:29:14;-0.20;99.90
25248;DHT22;13191;47.472;11.214;2023-03-15T05:31:39;-0.20;99.90
25248;DHT22;13191;47.472;11.214;2023-03-15T05:34:05;-0.20;99.90
25248;DHT22;13191;47.472;11.214;2023-03-15T05:36:31;-0.20;99.90
25248;DHT22;13191;47.472;11.214;2023-03-15T05:38:56;-0.20;99.90
25248;DHT22;13191;47.472;11.214;2023-03-15T05:41:22;-0.20;99.90
25248;DHT22;13191;47.472;11.214;2023-03-15T05:43:48;-0.20;99.90
25248;DHT22;13191;47.472;11.214;2023-03-15T05:46:14;-0.20;99.90
25248;DHT22;13191;47.472;11.214;2023-03-15T05:48:39;-0.30;99.90
25248;DHT22;13191;47.472;11.214;2023-03-15T05:51:05;-0.30;99.90
25248;DHT22;13191;47.472;11.214;2023-03-15T05:53:30;-0.30;99.90
25248;DHT22;13191;47.472;11.214;2023-03-15T05:55:56;-0.30;99.90
25248;DHT22;13191;47.472;11.214;2023-03-15T05:58:21;-0.30;99.90
25248;DHT22;13191;47.472;11.214;2023-03-15T06:00:47;-0.20;99.90
25248;DHT22;13191;47.472;11.214;2023-03-15T06:03:13;-0.10;99.90
25248;DHT22;13191;47.472;11.214;2023-03-15T06:05:40;0.00;99.90
25248;DHT22;13191;47.472;11.214;2023-03-15T06:08:05;0.00;99.90
25248;DHT22;13191;47.472;11.214;2023-03-15T06:10:30;0.00;99.90
25248;DHT22;13191;47.472;11.214;2023-03-15T06:12:56;0.00;99.90
25248;DHT22;13191;47.472;11.214;2023-03-15T06:15:21;0.00;99.90
25248;DHT22;13191;47.472;11.214;2023-03-15T06:17:47;0.00;99.90
25248;DHT22;13191;47.472;11.214;2023-03-15T06:20:13;0.10;99.90
25248;DHT22;13191;47.472;11.214;2023-03-15T06:22:38;0.10;99.90
25248;DHT22;13191;47.472;11.214;2023-03-15T06:25:04;0.20;99.90
25248;DHT22;13191;47.472;11.214;2023-03-15T06:27:30;0.30;99.90
25248;DHT22;13191;47.472;11.214;2023-03-15T06:29:55;0.30;99.90
25248;DHT22;13191;47.472;11.214;2023-03-15T06:32:21;0.40;99.90
25248;DHT22;13191;47.472;11.214;2023-03-15T06:34:47;0.40;99.90
25248;DHT22;13191;47.472;11.214;2023-03-15T06:37:12;0.50;99.90
25248;DHT22;13191;47.472;11.214;2023-03-15T06:39:38;0.50;99.90
25248;DHT22;13191;47.472;11.214;2023-03-15T06:42:05;0.50;99.90
25248;DHT22;13191;47.472;11.214;2023-03-15T06:44:33;0.50;99.90
25248;DHT22;13191;47.472;11.214;2023-03-15T06:46:58;0.60;99.90
25248;DHT22;13191;47.472;11.214;2023-03-15T06:49:24;0.60;99.90
25248;DHT22;13191;47.472;11.214;2023-03-15T06:51:49;0.70;99.90
25248;DHT22;13191;47.472;11.214;2023-03-15T06:54:15;0.80;99.90
25248;DHT22;13191;47.472;11.214;2023-03-15T06:56:40;0.80;99.90
25248;DHT22;13191;47.472;11.214;2023-03-15T06:59:06;0.90;99.90
25248;DHT22;13191;47.472;11.214;2023-03-15T07:01:32;0.90;99.90
25248;DHT22;13191;47.472;11.214;2023-03-15T07:03:57;0.90;99.90
25248;DHT22;13191;47.472;11.214;2023-03-15T07:06:23;0.90;99.90
25248;DHT22;13191;47.472;11.214;2023-03-15T07:08:48;0.90;99.90
25248;DHT22;13191;47.472;11.214;2023-03-15T07:11:14;0.90;99.90
25248;DHT22;13191;47.472;11.214;2023-03-15T07:13:39;1.00;99.90
25248;DHT22;13191;47.472;11.214;2023-03-15T07:16:05;1.00;99.90
25248;DHT22;13191;47.472;11.214;2023-03-15T07:18:33;1.00;99.90
25248;DHT22;13191;47.472;11.214;2023-03-15T07:20:59;1.10;99.90
25248;DHT22;13191;47.472;11.214;2023-03-15T07:23:25;1.10;99.90
25248;DHT22;13191;47.472;11.214;2023-03-15T07:25:51;1.10;99.90
25248;DHT22;13191;47.472;11.214;2023-03-15T07:28:18;1.10;99.90
25248;DHT22;13191;47.472;11.214;2023-03-15T07:30:54;1.20;99.90
25248;DHT22;13191;47.472;11.214;2023-03-15T07:33:19;1.30;99.90
25248;DHT22;13191;47.472;11.214;2023-03-15T07:35:47;1.30;99.90
25248;DHT22;13191;47.472;11.214;2023-03-15T07:38:12;1.40;99.90
25248;DHT22;13191;47.472;11.214;2023-03-15T07:40:38;1.40;99.90
25248;DHT22;13191;47.472;11.214;2023-03-15T07:43:03;1.50;99.90
25248;DHT22;13191;47.472;11.214;2023-03-15T07:45:30;1.50;99.90
25248;DHT22;13191;47.472;11.214;2023-03-15T07:47:56;1.60;99.90
25248;DHT22;13191;47.472;11.214;2023-03-15T07:50:21;1.60;99.90
25248;DHT22;13191;47.472;11.214;2023-03-15T07:52:47;1.50;99.90
25248;DHT22;13191;47.472;11.214;2023-03-15T07:55:12;1.30;99.90
25248;DHT22;13191;47.472;11.214;2023-03-15T07:57:38;1.20;99.90
25248;DHT22;13191;47.472;11.214;2023-03-15T08:00:03;1.30;99.90
25248;DHT22;13191;47.472;11.214;2023-03-15T08:02:30;1.30;99.90
25248;DHT22;13191;47.472;11.214;2023-03-15T08:04:55;1.30;99.90
25248;DHT22;13191;47.472;11.214;2023-03-15T08:07:21;1.20;99.90
25248;DHT22;13191;47.472;11.214;2023-03-15T08:09:46;1.10;99.90
25248;DHT22;13191;47.472;11.214;2023-03-15T08:12:12;1.00;99.90
25248;DHT22;13191;47.472;11.214;2023-03-15T08:14:38;1.00;99.90
25248;DHT22;13191;47.472;11.214;2023-03-15T08:17:03;1.00;99.90
25248;DHT22;13191;47.472;11.214;2023-03-15T08:19:29;1.00;99.90
25248;DHT22;13191;47.472;11.214;2023-03-15T08:21:55;1.00;99.90
25248;DHT22;13191;47.472;11.214;2023-03-15T08:24:20;1.00;99.90
25248;DHT22;13191;47.472;11.214;2023-03-15T08:26:46;1.00;99.90
25248;DHT22;13191;47.472;11.214;2023-03-15T08:29:11;1.10;99.90
25248;DHT22;13191;47.472;11.214;2023-03-15T08:31:37;1.10;99.90
25248;DHT22;13191;47.472;11.214;2023-03-15T08:34:02;1.10;99.90
25248;DHT22;13191;47.472;11.214;2023-03-15T08:36:28;1.00;99.90
25248;DHT22;13191;47.472;11.214;2023-03-15T08:38:53;1.10;99.90
25248;DHT22;13191;47.472;11.214;2023-03-15T08:41:20;1.20;99.90
25248;DHT22;13191;47.472;11.214;2023-03-15T08:43:45;1.30;99.90
25248;DHT22;13191;47.472;11.214;2023-03-15T08:46:11;1.30;99.90
25248;DHT22;13191;47.472;11.214;2023-03-15T08:48:37;1.40;99.90
25248;DHT22;13191;47.472;11.214;2023-03-15T08:51:03;1.50;99.90
25248;DHT22;13191;47.472;11.214;2023-03-15T08:53:29;1.40;99.90
25248;DHT22;13191;47.472;11.214;2023-03-15T08:55:55;1.40;99.90
25248;DHT22;13191;47.472;11.214;2023-03-15T08:58:21;1.30;99.90
25248;DHT22;13191;47.472;11.214;2023-03-15T09:00:48;1.40;99.90
25248;DHT22;13191;47.472;11.214;2023-03-15T09:03:14;1.50;99.90
25248;DHT22;13191;47.472;11.214;2023-03-15T09:05:40;1.60;99.90
25248;DHT22;13191;47.472;11.214;2023-03-15T09:08:06;1.70;99.90
25248;DHT22;13191;47.472;11.214;2023-03-15T09:10:32;1.80;99.90
25248;DHT22;13191;47.472;11.214;2023-03-15T09:12:58;1.90;99.90
25248;DHT22;13191;47.472;11.214;2023-03-15T09:15:24;2.00;99.90
25248;DHT22;13191;47.472;11.214;2023-03-15T09:17:49;2.00;99.90
25248;DHT22;13191;47.472;11.214;2023-03-15T09:20:15;2.10;99.90
25248;DHT22;13191;47.472;11.214;2023-03-15T09:22:43;2.10;99.90
25248;DHT22;13191;47.472;11.214;2023-03-15T09:25:15;2.20;99.90
25248;DHT22;13191;47.472;11.214;2023-03-15T09:27:40;2.20;99.90
25248;DHT22;13191;47.472;11.214;2023-03-15T09:30:06;2.20;99.90
25248;DHT22;13191;47.472;11.214;2023-03-15T09:32:32;2.20;99.90
25248;DHT22;13191;47.472;11.214;2023-03-15T09:35:04;2.20;99.90
25248;DHT22;13191;47.472;11.214;2023-03-15T09:37:29;2.30;99.90
25248;DHT22;13191;47.472;11.214;2023-03-15T09:39:55;2.30;99.90
25248;DHT22;13191;47.472;11.214;2023-03-15T09:45:06;2.30;99.90
25248;DHT22;13191;47.472;11.214;2023-03-15T09:48:20;2.40;99.90
25248;DHT22;13191;47.472;11.214;2023-03-15T09:50:28;2.40;99.90
25248;DHT22;13191;47.472;11.214;2023-03-15T09:53:30;2.50;99.90
25248;DHT22;13191;47.472;11.214;2023-03-15T09:55:47;2.40;99.90
25248;DHT22;13191;47.472;11.214;2023-03-15T09:58:14;2.50;99.90
25248;DHT22;13191;47.472;11.214;2023-03-15T10:05:45;2.70;99.90
25248;DHT22;13191;47.472;11.214;2023-03-15T10:08:12;2.80;99.90
25248;DHT22;13191;47.472;11.214;2023-03-15T10:10:40;2.80;99.90
25248;DHT22;13191;47.472;11.214;2023-03-15T10:15:47;2.90;99.90
25248;DHT22;13191;47.472;11.214;2023-03-15T10:21:10;2.90;99.90
25248;DHT22;13191;47.472;11.214;2023-03-15T10:23:47;2.90;99.90
25248;DHT22;13191;47.472;11.214;2023-03-15T10:26:18;3.00;99.90
25248;DHT22;13191;47.472;11.214;2023-03-15T10:28:45;2.90;99.90
25248;DHT22;13191;47.472;11.214;2023-03-15T10:31:12;2.90;99.90
25248;DHT22;13191;47.472;11.214;2023-03-15T10:33:38;3.00;99.90
25248;DHT22;13191;47.472;11.214;2023-03-15T10:36:17;3.20;99.90
25248;DHT22;13191;47.472;11.214;2023-03-15T10:38:43;3.20;99.90
25248;DHT22;13191;47.472;11.214;2023-03-15T10:41:10;3.30;99.90
25248;DHT22;13191;47.472;11.214;2023-03-15T10:43:35;3.40;99.90
25248;DHT22;13191;47.472;11.214;2023-03-15T10:48:33;3.50;99.90
25248;DHT22;13191;47.472;11.214;2023-03-15T10:51:00;3.50;99.90
25248;DHT22;13191;47.472;11.214;2023-03-15T10:53:27;3.60;99.90
25248;DHT22;13191;47.472;11.214;2023-03-15T10:55:57;3.70;99.90
25248;DHT22;13191;47.472;11.214;2023-03-15T10:58:24;3.80;99.90
25248;DHT22;13191;47.472;11.214;2023-03-15T11:00:53;3.80;99.90
25248;DHT22;13191;47.472;11.214;2023-03-15T11:03:23;3.80;99.90
25248;DHT22;13191;47.472;11.214;2023-03-15T11:05:50;3.80;99.90
25248;DHT22;13191;47.472;11.214;2023-03-15T11:08:17;3.90;99.90
25248;DHT22;13191;47.472;11.214;2023-03-15T11:10:43;3.90;99.90
25248;DHT22;13191;47.472;11.214;2023-03-15T11:13:19;3.90;99.90
25248;DHT22;13191;47.472;11.214;2023-03-15T11:15:53;4.00;99.90
25248;DHT22;13191;47.472;11.214;2023-03-15T11:18:23;4.00;99.90
25248;DHT22;13191;47.472;11.214;2023-03-15T11:20:49;3.90;99.90
25248;DHT22;13191;47.472;11.214;2023-03-15T11:23:19;3.80;99.90
25248;DHT22;13191;47.472;11.214;2023-03-15T11:25:46;3.90;99.90
25248;DHT22;13191;47.472;11.214;2023-03-15T11:28:16;3.80;99.90
25248;DHT22;13191;47.472;11.214;2023-03-15T11:30:42;3.70;99.90
25248;DHT22;13191;47.472;11.214;2023-03-15T11:33:10;3.70;99.90
25248;DHT22;13191;47.472;11.214;2023-03-15T11:35:40;3.80;99.90
25248;DHT22;13191;47.472;11.214;2023-03-15T11:38:13;3.80;99.90
25248;DHT22;13191;47.472;11.214;2023-03-15T11:40:42;3.80;99.90
25248;DHT22;13191;47.472;11.214;2023-03-15T11:45:39;3.90;99.90
25248;DHT22;13191;47.472;11.214;2023-03-15T11:48:10;3.90;99.90
25248;DHT22;13191;47.472;11.214;2023-03-15T11:50:39;4.00;99.90
25248;DHT22;13191;47.472;11.214;2023-03-15T11:53:09;4.10;99.90
25248;DHT22;13191;47.472;11.214;2023-03-15T11:55:36;4.00;99.90
25248;DHT22;13191;47.472;11.214;2023-03-15T12:03:27;4.00;99.90
25248;DHT22;13191;47.472;11.214;2023-03-15T12:06:03;3.90;99.90
25248;DHT22;13191;47.472;11.214;2023-03-15T12:11:00;4.00;99.90
25248;DHT22;13191;47.472;11.214;2023-03-15T12:13:28;4.00;99.90
25248;DHT22;13191;47.472;11.214;2023-03-15T12:15:55;4.10;99.90
25248;DHT22;13191;47.472;11.214;2023-03-15T12:18:31;4.20;99.90
25248;DHT22;13191;47.472;11.214;2023-03-15T12:23:31;4.40;99.90
25248;DHT22;13191;47.472;11.214;2023-03-15T12:28:32;4.50;99.90
25248;DHT22;13191;47.472;11.214;2023-03-15T12:30:59;4.60;99.90
25248;DHT22;13191;47.472;11.214;2023-03-15T12:33:26;4.70;99.90
25248;DHT22;13191;47.472;11.214;2023-03-15T12:35:57;4.70;99.90
25248;DHT22;13191;47.472;11.214;2023-03-15T12:38:23;4.70;99.90
25248;DHT22;13191;47.472;11.214;2023-03-15T12:40:53;4.70;99.90
25248;DHT22;13191;47.472;11.214;2023-03-15T12:46:03;4.50;99.90
25248;DHT22;13191;47.472;11.214;2023-03-15T12:48:30;4.30;99.90
25248;DHT22;13191;47.472;11.214;2023-03-15T12:50:57;4.30;99.90
25248;DHT22;13191;47.472;11.214;2023-03-15T12:53:26;4.40;99.90
25248;DHT22;13191;47.472;11.214;2023-03-15T12:55:52;4.60;99.90
25248;DHT22;13191;47.472;11.214;2023-03-15T12:58:19;4.50;99.90
25248;DHT22;13191;47.472;11.214;2023-03-15T13:00:46;4.60;99.90
25248;DHT22;13191;47.472;11.214;2023-03-15T13:03:19;4.70;99.90
25248;DHT22;13191;47.472;11.214;2023-03-15T13:08:24;4.50;99.90
25248;DHT22;13191;47.472;11.214;2023-03-15T13:11:00;4.50;99.90
25248;DHT22;13191;47.472;11.214;2023-03-15T13:19:23;5.00;99.90
25248;DHT22;13191;47.472;11.214;2023-03-15T13:22:02;5.10;99.90
25248;DHT22;13191;47.472;11.214;2023-03-15T13:24:34;5.20;99.90
25248;DHT22;13191;47.472;11.214;2023-03-15T13:27:05;5.40;99.90
25248;DHT22;13191;47.472;11.214;2023-03-15T13:29:33;5.60;99.90
25248;DHT22;13191;47.472;11.214;2023-03-15T13:32:17;5.60;99.90
25248;DHT22;13191;47.472;11.214;2023-03-15T13:34:44;5.70;99.90
25248;DHT22;13191;47.472;11.214;2023-03-15T13:37:12;5.60;99.90
25248;DHT22;13191;47.472;11.214;2023-03-15T13:39:38;5.50;99.90
25248;DHT22;13191;47.472;11.214;2023-03-15T13:42:17;5.50;99.90
25248;DHT22;13191;47.472;11.214;2023-03-15T13:44:43;5.40;99.90
25248;DHT22;13191;47.472;11.214;2023-03-15T13:47:09;5.20;99.90
25248;DHT22;13191;47.472;11.214;2023-03-15T13:49:43;5.00;99.90
25248;DHT22;13191;47.472;11.214;2023-03-15T13:52:08;5.00;99.90
25248;DHT22;13191;47.472;11.214;2023-03-15T13:54:38;4.80;99.90
25248;DHT22;13191;47.472;11.214;2023-03-15T13:57:06;4.70;99.90
25248;DHT22;13191;47.472;11.214;2023-03-15T13:59:34;4.70;99.90
25248;DHT22;13191;47.472;11.214;2023-03-15T14:02:02;4.80;99.90
25248;DHT22;13191;47.472;11.214;2023-03-15T14:04:28;4.90;99.90
25248;DHT22;13191;47.472;11.214;2023-03-15T14:09:47;5.00;99.90
25248;DHT22;13191;47.472;11.214;2023-03-15T14:12:17;4.90;99.90
25248;DHT22;13191;47.472;11.214;2023-03-15T14:14:49;5.00;99.90
25248;DHT22;13191;47.472;11.214;2023-03-15T14:17:24;5.00;99.90
25248;DHT22;13191;47.472;11.214;2023-03-15T14:19:54;5.10;99.90
25248;DHT22;13191;47.472;11.214;2023-03-15T14:22:19;5.10;99.90
25248;DHT22;13191;47.472;11.214;2023-03-15T14:24:46;5.20;99.90
25248;DHT22;13191;47.472;11.214;2023-03-15T14:27:16;5.10;99.90
25248;DHT22;13191;47.472;11.214;2023-03-15T14:29:46;5.30;99.90
25248;DHT22;13191;47.472;11.214;2023-03-15T14:35:20;5.40;99.90
25248;DHT22;13191;47.472;11.214;2023-03-15T14:37:47;5.20;99.90
25248;DHT22;13191;47.472;11.214;2023-03-15T14:40:17;5.30;99.90
25248;DHT22;13191;47.472;11.214;2023-03-15T14:42:45;5.50;99.90
25248;DHT22;13191;47.472;11.214;2023-03-15T14:45:11;5.70;99.90
25248;DHT22;13191;47.472;11.214;2023-03-15T14:47:38;5.80;99.90
25248;DHT22;13191;47.472;11.214;2023-03-15T14:50:09;6.60;99.90
25248;DHT22;13191;47.472;11.214;2023-03-15T14:52:36;6.80;99.90
25248;DHT22;13191;47.472;11.214;2023-03-15T14:55:02;6.30;99.90
25248;DHT22;13191;47.472;11.214;2023-03-15T14:57:28;6.00;99.90
25248;DHT22;13191;47.472;11.214;2023-03-15T14:59:53;6.20;99.90
25248;DHT22;13191;47.472;11.214;2023-03-15T15:02:19;5.90;99.90
25248;DHT22;13191;47.472;11.214;2023-03-15T15:04:44;5.50;99.90
25248;DHT22;13191;47.472;11.214;2023-03-15T15:07:12;5.10;99.90
25248;DHT22;13191;47.472;11.214;2023-03-15T15:09:40;4.70;99.90
25248;DHT22;13191;47.472;11.214;2023-03-15T15:12:09;4.60;99.90
25248;DHT22;13191;47.472;11.214;2023-03-15T15:14:35;4.30;99.90
25248;DHT22;13191;47.472;11.214;2023-03-15T15:17:00;4.30;99.90
25248;DHT22;13191;47.472;11.214;2023-03-15T15:19:26;4.20;99.90
25248;DHT22;13191;47.472;11.214;2023-03-15T15:21:52;4.30;99.90
25248;DHT22;13191;47.472;11.214;2023-03-15T15:24:18;4.30;99.90
25248;DHT22;13191;47.472;11.214;2023-03-15T15:26:44;4.30;99.90
25248;DHT22;13191;47.472;11.214;2023-03-15T15:29:10;4.30;99.90
25248;DHT22;13191;47.472;11.214;2023-03-15T15:31:38;4.40;99.90
25248;DHT22;13191;47.472;11.214;2023-03-15T15:34:03;4.30;99.90
25248;DHT22;13191;47.472;11.214;2023-03-15T15:36:31;4.10;99.90
25248;DHT22;13191;47.472;11.214;2023-03-15T15:38:57;4.00;99.90
25248;DHT22;13191;47.472;11.214;2023-03-15T15:41:28;4.10;99.90
25248;DHT22;13191;47.472;11.214;2023-03-15T15:43:57;4.10;99.90
25248;DHT22;13191;47.472;11.214;2023-03-15T15:46:23;4.20;99.90
25248;DHT22;13191;47.472;11.214;2023-03-15T15:48:49;4.20;99.90
25248;DHT22;13191;47.472;11.214;2023-03-15T15:51:22;4.10;99.90
25248;DHT22;13191;47.472;11.214;2023-03-15T15:53:49;4.10;99.90
25248;DHT22;13191;47.472;11.214;2023-03-15T15:56:15;4.10;99.90
25248;DHT22;13191;47.472;11.214;2023-03-15T15:58:53;4.10;99.90
25248;DHT22;13191;47.472;11.214;2023-03-15T16:01:21;4.00;99.90
25248;DHT22;13191;47.472;11.214;2023-03-15T16:03:46;4.00;99.90
25248;DHT22;13191;47.472;11.214;2023-03-15T16:06:14;4.00;99.90
25248;DHT22;13191;47.472;11.214;2023-03-15T16:08:40;4.00;99.90
25248;DHT22;13191;47.472;11.214;2023-03-15T16:11:06;3.80;99.90
25248;DHT22;13191;47.472;11.214;2023-03-15T16:13:32;3.70;99.90
25248;DHT22;13191;47.472;11.214;2023-03-15T16:15:57;3.70;99.90
25248;DHT22;13191;47.472;11.214;2023-03-15T16:18:23;3.70;99.90
25248;DHT22;13191;47.472;11.214;2023-03-15T16:20:48;3.80;99.90
25248;DHT22;13191;47.472;11.214;2023-03-15T16:23:18;3.90;99.90
25248;DHT22;13191;47.472;11.214;2023-03-15T16:25:46;3.90;99.90